Time;durP1;ratioP1;P1;durP2;ratioP2;P2;SDS_P1;SDS_P2;PMS_P1;PMS_P2;Temp;Humidity;BMP_temperature;BMP_pressure;BME280_temperature;BME280_humidity;BME280_pressure;Samples;Min_cycle;Max_cycle;Signal;HPM_P1;HPM_P2
2022/03/04 00:00:39;;;;;;;;;;;1.80;70.10;;;;;;6154458;23;20349;-77
2022/03/04 00:03:06;;;;;;;;;;;1.80;70.50;;;;;;6154627;23;19928;-77
2022/03/04 00:05:33;;;;;;;;;;;1.70;72.30;;;;;;6153475;23;20171;-76
2022/03/04 00:08:00;;;;;;;;;;;1.60;72.40;;;;;;6154383;23;20329;-75
2022/03/04 00:10:27;;;;;;;;;;;1.70;72.70;;;;;;6152131;23;19971;-77
2022/03/04 00:12:54;;;;;;;;;;;1.60;72.20;;;;;;6153033;23;19924;-76
2022/03/04 00:15:21;;;;;;;;;;;1.60;71.50;;;;;;6153326;23;20345;-76
2022/03/04 00:17:48;;;;;;;;;;;1.70;71.50;;;;;;6153667;23;19956;-76
2022/03/04 00:20:15;;;;;;;;;;;1.70;72.30;;;;;;6153442;23;20234;-76
2022/03/04 00:22:42;;;;;;;;;;;1.70;72.70;;;;;;6152619;23;19917;-77
2022/03/04 00:25:09;;;;;;;;;;;1.70;72.20;;;;;;6152218;23;19916;-77
2022/03/04 00:27:36;;;;;;;;;;;1.70;73.20;;;;;;6152613;23;19963;-76
2022/03/04 00:30:03;;;;;;;;;;;1.60;71.80;;;;;;6155114;23;19924;-75
2022/03/04 00:32:30;;;;;;;;;;;1.50;72.30;;;;;;6153897;23;20262;-75
2022/03/04 00:34:57;;;;;;;;;;;1.40;71.70;;;;;;6153719;23;19916;-75
2022/03/04 00:37:23;;;;;;;;;;;1.30;72.90;;;;;;6153208;23;19967;-76
2022/03/04 00:39:50;;;;;;;;;;;1.20;73.00;;;;;;6152244;23;19921;-77
2022/03/04 00:42:17;;;;;;;;;;;1.20;72.40;;;;;;6152958;23;19924;-77
2022/03/04 00:44:44;;;;;;;;;;;1.20;72.60;;;;;;6153804;23;19916;-76
2022/03/04 00:47:11;;;;;;;;;;;1.10;72.50;;;;;;6153493;23;19923;-76
2022/03/04 00:49:38;;;;;;;;;;;1.10;72.20;;;;;;6151537;23;19979;-76
2022/03/04 00:52:05;;;;;;;;;;;1.10;72.50;;;;;;6178214;23;19916;-76
2022/03/04 00:54:31;;;;;;;;;;;1.10;73.00;;;;;;6154154;23;19917;-76
2022/03/04 00:56:58;;;;;;;;;;;1.20;72.50;;;;;;6155080;23;20340;-76
2022/03/04 00:59:25;;;;;;;;;;;1.20;72.20;;;;;;6154143;23;19959;-77
2022/03/04 01:01:52;;;;;;;;;;;1.20;71.80;;;;;;6152701;23;19940;-76
2022/03/04 01:04:19;;;;;;;;;;;1.20;72.80;;;;;;6153714;23;19917;-76
2022/03/04 01:06:46;;;;;;;;;;;1.20;73.70;;;;;;6154337;23;19951;-76
2022/03/04 01:09:13;;;;;;;;;;;1.30;73.30;;;;;;6155049;23;19951;-77
2022/03/04 01:11:40;;;;;;;;;;;1.30;72.80;;;;;;6153651;23;20487;-75
2022/03/04 01:14:07;;;;;;;;;;;1.20;72.30;;;;;;6155227;23;20253;-76
2022/03/04 01:16:34;;;;;;;;;;;1.10;72.30;;;;;;6154040;23;19916;-76
2022/03/04 01:19:02;;;;;;;;;;;1.00;72.40;;;;;;6154979;23;19964;-76
2022/03/04 01:21:28;;;;;;;;;;;0.90;74.50;;;;;;6154354;23;19916;-76
2022/03/04 01:23:55;;;;;;;;;;;0.90;73.70;;;;;;6155509;23;19921;-77
2022/03/04 01:26:22;;;;;;;;;;;0.80;74.10;;;;;;6155277;23;19920;-76
2022/03/04 01:28:50;;;;;;;;;;;0.80;74.10;;;;;;6155565;23;20280;-76
2022/03/04 01:31:17;;;;;;;;;;;0.80;75.10;;;;;;6155165;23;19916;-76
2022/03/04 01:33:43;;;;;;;;;;;0.80;74.50;;;;;;6153849;23;19939;-75
2022/03/04 01:36:10;;;;;;;;;;;0.80;75.00;;;;;;6157665;23;19916;-75
2022/03/04 01:38:37;;;;;;;;;;;0.90;74.10;;;;;;6155182;23;19916;-77
2022/03/04 01:41:04;;;;;;;;;;;0.90;73.90;;;;;;6179512;23;19920;-76
2022/03/04 01:43:30;;;;;;;;;;;0.90;74.30;;;;;;6154768;23;20230;-76
2022/03/04 01:46:07;;;;;;;;;;;0.90;74.00;;;;;;6154997;23;20331;-76
2022/03/04 01:48:34;;;;;;;;;;;0.90;74.40;;;;;;6155282;23;19947;-75
2022/03/04 01:51:01;;;;;;;;;;;0.90;74.30;;;;;;6154498;23;19920;-77
2022/03/04 01:53:28;;;;;;;;;;;0.70;74.40;;;;;;6154320;23;19975;-77
2022/03/04 01:55:55;;;;;;;;;;;0.70;74.20;;;;;;6153865;23;20020;-77
2022/03/04 01:58:21;;;;;;;;;;;0.70;74.70;;;;;;6154668;23;20329;-75
2022/03/04 02:00:50;;;;;;;;;;;0.70;74.50;;;;;;6154987;23;20341;-76
2022/03/04 02:03:17;;;;;;;;;;;0.70;75.00;;;;;;6154434;23;20345;-75
2022/03/04 02:05:45;;;;;;;;;;;0.70;74.00;;;;;;6155555;23;19917;-75
2022/03/04 02:08:11;;;;;;;;;;;0.70;74.60;;;;;;6156317;23;19947;-76
2022/03/04 02:10:38;;;;;;;;;;;0.70;74.80;;;;;;6154261;23;19924;-77
2022/03/04 02:13:05;;;;;;;;;;;0.70;74.10;;;;;;6154484;23;19921;-77
2022/03/04 02:15:32;;;;;;;;;;;0.70;74.10;;;;;;6152891;23;19916;-76
2022/03/04 02:17:58;;;;;;;;;;;0.70;74.30;;;;;;6154532;23;19971;-76
2022/03/04 02:20:28;;;;;;;;;;;0.70;73.90;;;;;;6154372;23;19971;-77
2022/03/04 02:22:55;;;;;;;;;;;0.80;73.30;;;;;;6177958;23;19917;-76
2022/03/04 02:25:22;;;;;;;;;;;0.70;73.20;;;;;;6154560;23;19940;-75
2022/03/04 02:27:48;;;;;;;;;;;0.70;75.00;;;;;;6153776;23;19967;-75
2022/03/04 02:30:16;;;;;;;;;;;0.70;74.50;;;;;;6154749;23;20249;-76
2022/03/04 02:32:42;;;;;;;;;;;0.70;74.30;;;;;;6155219;23;19920;-77
2022/03/04 02:35:09;;;;;;;;;;;0.70;74.00;;;;;;6154309;23;19917;-75
2022/03/04 02:37:38;;;;;;;;;;;0.70;74.00;;;;;;6154420;23;20304;-76
2022/03/04 02:40:05;;;;;;;;;;;0.60;73.60;;;;;;6155108;23;20296;-75
2022/03/04 02:42:32;;;;;;;;;;;0.50;73.80;;;;;;6155582;23;19917;-77
2022/03/04 02:44:58;;;;;;;;;;;0.30;74.40;;;;;;6143413;23;19924;-75
2022/03/04 02:47:25;;;;;;;;;;;0.30;73.90;;;;;;6154134;23;19917;-77
2022/03/04 02:49:52;;;;;;;;;;;0.30;74.80;;;;;;6152134;23;19963;-76
2022/03/04 02:52:19;;;;;;;;;;;0.30;74.30;;;;;;6154954;23;19917;-75
2022/03/04 02:54:45;;;;;;;;;;;0.30;74.50;;;;;;6155866;23;20396;-76
2022/03/04 02:57:12;;;;;;;;;;;0.30;74.30;;;;;;6154582;23;19916;-75
2022/03/04 02:59:39;;;;;;;;;;;0.30;73.70;;;;;;6154627;23;19916;-76
2022/03/04 03:02:06;;;;;;;;;;;0.30;74.10;;;;;;6155571;23;19916;-77
2022/03/04 03:04:33;;;;;;;;;;;0.30;74.20;;;;;;6154650;23;19992;-75
2022/03/04 03:07:00;;;;;;;;;;;0.30;75.00;;;;;;6153701;23;19983;-77
2022/03/04 03:09:27;;;;;;;;;;;0.30;74.80;;;;;;6155961;23;19916;-76
2022/03/04 03:11:53;;;;;;;;;;;0.20;75.20;;;;;;6153572;23;20022;-75
2022/03/04 03:14:20;;;;;;;;;;;0.20;74.30;;;;;;6154923;23;19963;-75
2022/03/04 03:16:47;;;;;;;;;;;0.20;74.30;;;;;;6153944;23;19983;-75
2022/03/04 03:19:14;;;;;;;;;;;0.20;74.30;;;;;;6153768;23;19972;-77
2022/03/04 03:21:41;;;;;;;;;;;0.20;73.90;;;;;;6152810;23;19923;-76
2022/03/04 03:24:08;;;;;;;;;;;0.20;74.00;;;;;;6156414;23;19971;-75
2022/03/04 03:26:34;;;;;;;;;;;0.10;73.60;;;;;;6154453;23;19960;-76
2022/03/04 03:29:01;;;;;;;;;;;0.10;74.40;;;;;;6154594;23;19917;-75
2022/03/04 03:31:28;;;;;;;;;;;0.10;75.90;;;;;;6154241;23;19925;-75
2022/03/04 03:33:55;;;;;;;;;;;0.10;75.50;;;;;;6153044;23;19917;-77
2022/03/04 03:36:22;;;;;;;;;;;0.00;75.20;;;;;;6154892;23;19916;-77
2022/03/04 03:38:49;;;;;;;;;;;0.10;74.70;;;;;;6153441;23;19971;-76
2022/03/04 03:41:15;;;;;;;;;;;0.10;75.00;;;;;;6154496;23;19940;-77
2022/03/04 03:43:43;;;;;;;;;;;0.10;75.80;;;;;;6153569;23;19916;-75
2022/03/04 03:46:09;;;;;;;;;;;0.10;75.60;;;;;;6156395;23;19917;-76
2022/03/04 03:48:40;;;;;;;;;;;0.00;75.40;;;;;;6155089;23;19968;-76
2022/03/04 03:51:08;;;;;;;;;;;0.10;75.10;;;;;;6155941;23;19940;-77
2022/03/04 03:53:35;;;;;;;;;;;0.00;76.80;;;;;;6156269;23;19920;-76
2022/03/04 03:56:02;;;;;;;;;;;0.00;75.80;;;;;;6157744;23;19967;-76
2022/03/04 03:58:29;;;;;;;;;;;-0.10;77.20;;;;;;6154141;23;19921;-75
2022/03/04 04:00:56;;;;;;;;;;;-0.10;77.10;;;;;;6158415;23;19928;-75
2022/03/04 04:03:23;;;;;;;;;;;-0.20;76.20;;;;;;6156357;23;19924;-76
2022/03/04 04:05:50;;;;;;;;;;;-0.20;76.50;;;;;;6154077;23;19916;-77
2022/03/04 04:08:17;;;;;;;;;;;-0.20;75.80;;;;;;6158558;23;19917;-77
2022/03/04 04:10:44;;;;;;;;;;;-0.20;76.20;;;;;;6155140;23;19952;-77
2022/03/04 04:13:11;;;;;;;;;;;-0.30;76.80;;;;;;6157180;23;19917;-76
2022/03/04 04:15:38;;;;;;;;;;;-0.20;76.60;;;;;;6159581;23;19952;-75
2022/03/04 04:18:05;;;;;;;;;;;-0.20;76.80;;;;;;6154268;23;19920;-76
2022/03/04 04:20:32;;;;;;;;;;;-0.20;79.50;;;;;;6155880;23;19942;-75
2022/03/04 04:22:59;;;;;;;;;;;0.00;81.00;;;;;;6156731;23;20391;-76
2022/03/04 04:25:25;;;;;;;;;;;0.00;79.50;;;;;;6155198;23;20329;-77
2022/03/04 04:27:52;;;;;;;;;;;0.10;79.10;;;;;;6155404;23;20337;-76
2022/03/04 04:30:19;;;;;;;;;;;0.00;78.00;;;;;;6154457;23;19916;-77
2022/03/04 04:32:46;;;;;;;;;;;0.00;77.50;;;;;;6156614;23;19920;-75
2022/03/04 04:35:12;;;;;;;;;;;0.00;77.50;;;;;;6145523;23;19921;-75
2022/03/04 04:37:39;;;;;;;;;;;-0.10;77.50;;;;;;6156725;23;19967;-76
2022/03/04 04:40:06;;;;;;;;;;;-0.10;77.20;;;;;;6154309;23;19948;-77
2022/03/04 04:42:33;;;;;;;;;;;-0.20;77.30;;;;;;6179693;23;19920;-76
2022/03/04 04:45:00;;;;;;;;;;;-0.20;78.00;;;;;;6157698;23;19990;-75
2022/03/04 04:47:27;;;;;;;;;;;-0.20;78.40;;;;;;6157827;23;19916;-78
2022/03/04 04:49:54;;;;;;;;;;;-0.20;78.50;;;;;;6155801;23;19921;-76
2022/03/04 04:52:21;;;;;;;;;;;-0.30;77.50;;;;;;6155725;23;19916;-76
2022/03/04 04:54:47;;;;;;;;;;;-0.30;77.60;;;;;;6154216;23;19920;-77
2022/03/04 04:57:14;;;;;;;;;;;-0.20;78.60;;;;;;6127569;23;19986;-76
2022/03/04 04:59:41;;;;;;;;;;;-0.30;77.90;;;;;;6153789;23;20297;-75
2022/03/04 05:02:08;;;;;;;;;;;-0.30;77.60;;;;;;6153364;23;19916;-77
2022/03/04 05:04:34;;;;;;;;;;;-0.30;77.70;;;;;;6153963;23;19923;-75
2022/03/04 05:07:02;;;;;;;;;;;-0.30;77.90;;;;;;6154181;23;19916;-77
2022/03/04 05:09:29;;;;;;;;;;;-0.30;77.70;;;;;;6153640;23;19921;-75
2022/03/04 05:11:55;;;;;;;;;;;-0.30;78.20;;;;;;6153557;23;20338;-76
2022/03/04 05:14:22;;;;;;;;;;;-0.30;77.50;;;;;;6154615;23;19916;-77
2022/03/04 05:16:49;;;;;;;;;;;-0.30;77.40;;;;;;6153649;23;20353;-77
2022/03/04 05:19:15;;;;;;;;;;;-0.30;77.40;;;;;;6146166;23;19908;-76
2022/03/04 05:21:42;;;;;;;;;;;-0.30;77.70;;;;;;6157092;23;19917;-77
2022/03/04 05:24:11;;;;;;;;;;;-0.30;76.80;;;;;;6152599;23;19920;-75
2022/03/04 05:26:39;;;;;;;;;;;-0.30;77.40;;;;;;6154149;23;19975;-76
2022/03/04 05:29:09;;;;;;;;;;;-0.30;77.70;;;;;;6177172;23;19916;-76
2022/03/04 05:31:36;;;;;;;;;;;-0.30;77.00;;;;;;6154351;23;19917;-75
2022/03/04 05:34:03;;;;;;;;;;;-0.30;78.00;;;;;;6152561;23;19920;-75
2022/03/04 05:36:30;;;;;;;;;;;-0.20;77.30;;;;;;6151965;23;20301;-76
2022/03/04 05:38:57;;;;;;;;;;;-0.20;76.90;;;;;;6151453;23;19916;-77
2022/03/04 05:41:24;;;;;;;;;;;-0.40;76.70;;;;;;6151769;23;20321;-76
2022/03/04 05:43:51;;;;;;;;;;;-0.40;77.60;;;;;;6153795;23;19917;-75
2022/03/04 05:46:18;;;;;;;;;;;-0.50;77.20;;;;;;6153218;23;20546;-76
2022/03/04 05:48:45;;;;;;;;;;;-0.60;78.50;;;;;;6153809;23;19916;-77
2022/03/04 05:51:12;;;;;;;;;;;-0.60;78.10;;;;;;6153023;23;19967;-77
2022/03/04 05:53:39;;;;;;;;;;;-0.60;79.30;;;;;;6154204;23;19928;-76
2022/03/04 05:56:07;;;;;;;;;;;-0.70;78.30;;;;;;6153937;23;20333;-75
2022/03/04 05:58:34;;;;;;;;;;;-0.70;79.40;;;;;;6153421;23;19936;-77
2022/03/04 06:01:02;;;;;;;;;;;-0.70;79.20;;;;;;6153770;23;19924;-77
2022/03/04 06:03:29;;;;;;;;;;;-0.70;80.30;;;;;;6154868;23;19928;-75
2022/03/04 06:05:56;;;;;;;;;;;-0.70;80.20;;;;;;6153640;23;20345;-76
2022/03/04 06:08:23;;;;;;;;;;;-0.80;79.40;;;;;;6154360;23;19987;-77
2022/03/04 06:10:50;;;;;;;;;;;-0.80;79.00;;;;;;6158958;23;20348;-75
2022/03/04 06:13:17;;;;;;;;;;;-0.70;79.60;;;;;;6154926;23;19924;-77
2022/03/04 06:15:43;;;;;;;;;;;-0.80;80.60;;;;;;6154565;23;19924;-75
2022/03/04 06:18:10;;;;;;;;;;;-0.70;82.60;;;;;;6153788;23;19917;-77
2022/03/04 06:20:37;;;;;;;;;;;-0.70;81.90;;;;;;6154692;23;19920;-75
2022/03/04 06:23:04;;;;;;;;;;;-0.70;81.50;;;;;;6153788;23;19917;-77
2022/03/04 06:25:31;;;;;;;;;;;-0.60;81.90;;;;;;6156748;23;20333;-77
2022/03/04 06:27:59;;;;;;;;;;;-0.70;82.10;;;;;;6155787;23;19921;-76
2022/03/04 06:30:27;;;;;;;;;;;-0.60;81.90;;;;;;6156565;23;19971;-75
2022/03/04 06:33:30;;;;;;;;;;;-0.60;81.00;;;;;;6155060;23;20399;-75
2022/03/04 06:35:41;;;;;;;;;;;-0.60;81.00;;;;;;6155104;23;19917;-77
2022/03/04 06:38:08;;;;;;;;;;;-0.60;81.40;;;;;;6155234;23;19924;-76
2022/03/04 06:40:36;;;;;;;;;;;-0.60;80.60;;;;;;6156772;23;20317;-76
2022/03/04 06:43:04;;;;;;;;;;;-0.60;80.60;;;;;;6165580;23;20249;-76
2022/03/04 06:45:31;;;;;;;;;;;-0.50;81.70;;;;;;6156780;23;19971;-76
2022/03/04 06:47:58;;;;;;;;;;;-0.50;82.20;;;;;;6154899;23;20023;-76
2022/03/04 06:50:26;;;;;;;;;;;-0.40;81.50;;;;;;6161193;23;19916;-76
2022/03/04 06:52:53;;;;;;;;;;;-0.40;81.90;;;;;;6157148;23;19948;-76
2022/03/04 06:55:20;;;;;;;;;;;-0.30;81.70;;;;;;6180274;23;19943;-76
2022/03/04 06:57:48;;;;;;;;;;;-0.20;82.20;;;;;;6157036;23;19923;-75
2022/03/04 07:00:15;;;;;;;;;;;-0.20;82.00;;;;;;6157814;23;19923;-76
2022/03/04 07:02:41;;;;;;;;;;;-0.10;81.70;;;;;;6158731;23;19924;-75
2022/03/04 07:05:09;;;;;;;;;;;0.00;82.30;;;;;;6155151;23;19920;-76
2022/03/04 07:07:36;;;;;;;;;;;0.00;82.50;;;;;;6154071;23;19982;-77
2022/03/04 07:10:03;;;;;;;;;;;0.00;81.60;;;;;;6156906;23;19916;-76
2022/03/04 07:12:30;;;;;;;;;;;0.10;81.70;;;;;;6162239;23;19921;-76
2022/03/04 07:14:57;;;;;;;;;;;0.10;81.50;;;;;;6155412;23;19920;-77
2022/03/04 07:17:24;;;;;;;;;;;0.10;81.50;;;;;;6158835;23;19924;-76
2022/03/04 07:19:51;;;;;;;;;;;0.10;81.60;;;;;;6156311;23;20325;-76
2022/03/04 07:22:17;;;;;;;;;;;0.20;82.80;;;;;;6157191;23;19916;-76
2022/03/04 07:24:44;;;;;;;;;;;0.20;83.40;;;;;;6144863;23;19920;-76
2022/03/04 07:27:11;;;;;;;;;;;0.30;82.40;;;;;;6153868;23;20333;-77
2022/03/04 07:29:38;;;;;;;;;;;0.40;82.20;;;;;;6157069;23;20700;-76
2022/03/04 07:32:05;;;;;;;;;;;0.60;82.80;;;;;;6153700;23;20329;-77
2022/03/04 07:34:31;;;;;;;;;;;0.70;82.10;;;;;;6128457;23;19923;-77
2022/03/04 07:36:58;;;;;;;;;;;0.90;81.70;;;;;;6130363;23;19924;-76
2022/03/04 07:39:25;;;;;;;;;;;1.10;81.20;;;;;;6154029;23;20333;-75
2022/03/04 07:41:52;;;;;;;;;;;1.30;80.80;;;;;;6135329;23;20329;-77
2022/03/04 07:44:19;;;;;;;;;;;1.40;80.50;;;;;;6131557;23;20333;-77
2022/03/04 07:46:47;;;;;;;;;;;1.70;80.90;;;;;;6155937;23;19916;-76
2022/03/04 07:49:14;;;;;;;;;;;1.90;81.40;;;;;;6155527;23;19920;-76
2022/03/04 07:51:41;;;;;;;;;;;2.10;81.80;;;;;;6134221;23;19916;-76
2022/03/04 07:54:07;;;;;;;;;;;2.30;81.30;;;;;;6166106;23;19947;-76
2022/03/04 07:56:34;;;;;;;;;;;2.50;81.00;;;;;;6133761;23;19916;-75
2022/03/04 07:59:01;;;;;;;;;;;2.70;80.10;;;;;;6141871;23;19947;-76
2022/03/04 08:01:28;;;;;;;;;;;3.00;78.60;;;;;;6153456;23;19924;-76
2022/03/04 08:03:55;;;;;;;;;;;3.20;77.70;;;;;;6159253;23;20249;-75
2022/03/04 08:06:22;;;;;;;;;;;3.50;77.50;;;;;;6154085;23;20345;-76
2022/03/04 08:08:49;;;;;;;;;;;3.70;77.40;;;;;;6153174;23;19979;-77
2022/03/04 08:11:15;;;;;;;;;;;3.90;76.80;;;;;;6154191;23;19917;-77
2022/03/04 08:13:43;;;;;;;;;;;4.20;73.40;;;;;;6151735;23;28902;-76
2022/03/04 08:16:10;;;;;;;;;;;4.40;73.30;;;;;;6154575;23;19963;-77
2022/03/04 08:18:37;;;;;;;;;;;4.60;73.20;;;;;;6154109;23;19961;-76
2022/03/04 08:21:04;;;;;;;;;;;4.80;71.20;;;;;;6152875;23;19928;-74
2022/03/04 08:23:31;;;;;;;;;;;5.00;71.00;;;;;;6155761;23;19971;-74
2022/03/04 08:26:02;;;;;;;;;;;5.30;69.90;;;;;;6156571;23;20321;-76
2022/03/04 08:28:30;;;;;;;;;;;5.50;68.40;;;;;;6152126;23;19920;-77
2022/03/04 08:30:58;;;;;;;;;;;5.80;66.50;;;;;;6152992;23;19920;-76
2022/03/04 08:33:27;;;;;;;;;;;6.00;65.00;;;;;;6152563;23;19920;-77
2022/03/04 08:35:54;;;;;;;;;;;6.20;64.10;;;;;;6154578;23;19967;-77
2022/03/04 08:38:21;;;;;;;;;;;6.50;64.10;;;;;;6151629;23;19928;-75
2022/03/04 08:40:47;;;;;;;;;;;6.70;62.00;;;;;;6153476;23;20395;-76
2022/03/04 08:43:14;;;;;;;;;;;6.70;61.80;;;;;;6150206;23;19920;-76
2022/03/04 08:45:41;;;;;;;;;;;6.90;61.40;;;;;;6151624;23;19936;-76
2022/03/04 08:48:10;;;;;;;;;;;7.00;61.30;;;;;;6153897;23;20337;-76
2022/03/04 08:50:37;;;;;;;;;;;7.10;61.80;;;;;;6149525;23;19920;-76
2022/03/04 08:53:07;;;;;;;;;;;7.20;61.10;;;;;;6151516;23;19987;-75
2022/03/04 08:55:34;;;;;;;;;;;7.30;59.70;;;;;;6154666;23;19967;-77
2022/03/04 08:58:01;;;;;;;;;;;7.30;60.00;;;;;;6153555;23;19917;-76
2022/03/04 09:00:28;;;;;;;;;;;7.30;60.30;;;;;;6152613;23;19924;-76
2022/03/04 09:02:55;;;;;;;;;;;7.40;60.50;;;;;;6154543;23;20357;-77
2022/03/04 09:05:22;;;;;;;;;;;7.40;60.50;;;;;;6152570;23;19936;-77
2022/03/04 09:07:49;;;;;;;;;;;7.50;60.90;;;;;;6152172;23;20394;-76
2022/03/04 09:10:16;;;;;;;;;;;7.70;62.60;;;;;;6152388;23;19917;-76
2022/03/04 09:12:43;;;;;;;;;;;7.90;62.30;;;;;;6152755;23;19916;-76
2022/03/04 09:15:10;;;;;;;;;;;8.10;62.40;;;;;;6153778;23;19924;-77
2022/03/04 09:17:37;;;;;;;;;;;8.40;62.50;;;;;;6151580;23;19991;-76
2022/03/04 09:20:04;;;;;;;;;;;8.60;61.40;;;;;;6150319;23;19920;-76
2022/03/04 09:22:31;;;;;;;;;;;8.80;61.50;;;;;;6150336;23;19920;-76
2022/03/04 09:24:57;;;;;;;;;;;9.00;61.30;;;;;;6152806;23;20522;-76
2022/03/04 09:27:24;;;;;;;;;;;9.10;60.80;;;;;;6152833;23;19916;-78
2022/03/04 09:29:51;;;;;;;;;;;9.30;60.70;;;;;;6153461;23;19917;-77
2022/03/04 09:32:18;;;;;;;;;;;9.40;59.50;;;;;;6154539;23;19944;-76
2022/03/04 09:34:45;;;;;;;;;;;9.50;59.20;;;;;;6154038;23;19916;-77
2022/03/04 09:37:11;;;;;;;;;;;9.60;58.50;;;;;;6155023;23;19916;-77
2022/03/04 09:39:38;;;;;;;;;;;9.70;59.10;;;;;;6152135;23;20247;-77
2022/03/04 09:42:06;;;;;;;;;;;9.80;57.70;;;;;;6154154;23;19916;-76
2022/03/04 09:44:33;;;;;;;;;;;9.90;57.20;;;;;;6153597;23;19943;-78
2022/03/04 09:47:01;;;;;;;;;;;9.90;57.50;;;;;;6153398;23;19916;-77
2022/03/04 09:49:32;;;;;;;;;;;10.00;57.20;;;;;;6155130;23;19983;-78
2022/03/04 09:51:59;;;;;;;;;;;10.00;57.20;;;;;;6155893;23;20356;-79
2022/03/04 09:54:27;;;;;;;;;;;10.10;56.80;;;;;;6154176;23;19921;-75
2022/03/04 09:56:54;;;;;;;;;;;10.00;56.30;;;;;;6153008;23;19924;-75
2022/03/04 09:59:21;;;;;;;;;;;10.10;56.70;;;;;;6155966;23;20305;-76
2022/03/04 10:01:48;;;;;;;;;;;10.30;56.70;;;;;;6153382;23;19920;-77
2022/03/04 10:04:15;;;;;;;;;;;10.30;57.10;;;;;;6177547;23;19927;-75
2022/03/04 10:06:46;;;;;;;;;;;10.50;56.40;;;;;;6153325;23;19920;-76
2022/03/04 10:09:31;;;;;;;;;;;10.60;56.80;;;;;;6154409;23;19928;-76
2022/03/04 10:12:02;;;;;;;;;;;10.80;55.70;;;;;;6153624;23;19924;-77
2022/03/04 10:14:29;;;;;;;;;;;10.80;55.40;;;;;;6155758;23;19916;-76
2022/03/04 10:16:57;;;;;;;;;;;10.80;55.50;;;;;;6155681;23;19935;-79
2022/03/04 10:19:24;;;;;;;;;;;10.90;55.20;;;;;;6153955;23;19971;-79
2022/03/04 10:21:56;;;;;;;;;;;11.00;54.80;;;;;;6153513;23;20345;-76
2022/03/04 10:24:27;;;;;;;;;;;11.10;55.00;;;;;;6153205;23;20261;-77
2022/03/04 10:26:59;;;;;;;;;;;11.30;54.20;;;;;;6176248;23;20400;-76
2022/03/04 10:29:26;;;;;;;;;;;11.40;53.40;;;;;;6152965;23;20277;-76
2022/03/04 10:32:05;;;;;;;;;;;11.40;53.50;;;;;;6153942;23;19976;-77
2022/03/04 10:34:52;;;;;;;;;;;11.50;53.30;;;;;;6152392;23;19921;-79
2022/03/04 10:37:22;;;;;;;;;;;11.40;52.90;;;;;;6154563;23;20274;-77
2022/03/04 10:39:58;;;;;;;;;;;11.50;53.20;;;;;;6151393;23;19928;-75
2022/03/04 10:42:41;;;;;;;;;;;11.60;53.70;;;;;;6154805;23;20457;-76
2022/03/04 10:45:12;;;;;;;;;;;11.40;53.40;;;;;;6154645;23;20486;-78
2022/03/04 10:47:44;;;;;;;;;;;11.40;54.00;;;;;;6154716;23;19987;-75
2022/03/04 10:50:12;;;;;;;;;;;11.60;53.80;;;;;;6177477;23;20436;-75
2022/03/04 10:53:08;;;;;;;;;;;11.70;54.10;;;;;;6154499;23;20364;-75
2022/03/04 10:55:42;;;;;;;;;;;11.80;53.40;;;;;;6141509;23;19920;-78
2022/03/04 10:58:14;;;;;;;;;;;11.70;53.50;;;;;;6154786;23;19971;-75
2022/03/04 11:01:02;;;;;;;;;;;11.80;53.50;;;;;;6151025;23;19916;-75
2022/03/04 11:03:30;;;;;;;;;;;11.80;53.60;;;;;;6143146;23;19921;-76
2022/03/04 11:05:58;;;;;;;;;;;11.90;53.10;;;;;;6153881;23;19916;-76
2022/03/04 11:08:26;;;;;;;;;;;12.10;53.40;;;;;;6151694;23;20376;-78
2022/03/04 11:10:54;;;;;;;;;;;12.20;53.20;;;;;;6153602;23;19924;-78
2022/03/04 11:13:20;;;;;;;;;;;12.20;52.90;;;;;;6151717;23;20470;-77
2022/03/04 11:15:48;;;;;;;;;;;12.30;53.00;;;;;;6153661;23;19920;-75
2022/03/04 11:18:16;;;;;;;;;;;12.50;52.70;;;;;;6154042;23;19918;-77
2022/03/04 11:20:44;;;;;;;;;;;12.50;51.90;;;;;;6152991;23;19979;-79
2022/03/04 11:23:17;;;;;;;;;;;12.60;51.90;;;;;;6155213;23;20024;-77
2022/03/04 11:25:45;;;;;;;;;;;12.50;51.30;;;;;;6152504;23;19924;-76
2022/03/04 11:28:16;;;;;;;;;;;12.60;50.60;;;;;;6153122;23;19921;-76
2022/03/04 11:30:45;;;;;;;;;;;12.50;50.60;;;;;;6151655;23;20356;-76
2022/03/04 11:33:25;;;;;;;;;;;12.50;51.50;;;;;;6152661;23;19917;-75
2022/03/04 11:35:55;;;;;;;;;;;12.50;50.50;;;;;;6153746;23;19924;-79
2022/03/04 11:38:41;;;;;;;;;;;12.50;50.80;;;;;;6152229;23;19917;-77
2022/03/04 11:41:08;;;;;;;;;;;12.50;50.50;;;;;;6176803;23;19916;-77
2022/03/04 11:43:53;;;;;;;;;;;12.60;50.10;;;;;;6153388;23;19917;-76
2022/03/04 11:46:24;;;;;;;;;;;12.60;50.40;;;;;;6151752;23;19917;-80
2022/03/04 11:49:17;;;;;;;;;;;12.70;50.70;;;;;;6153130;23;20333;-77
2022/03/04 11:52:04;;;;;;;;;;;13.00;50.00;;;;;;6153504;23;20248;-79
2022/03/04 11:54:31;;;;;;;;;;;12.90;49.40;;;;;;6152224;23;20367;-77
2022/03/04 11:56:57;;;;;;;;;;;12.80;50.60;;;;;;6152934;23;19916;-77
2022/03/04 11:59:25;;;;;;;;;;;12.80;49.80;;;;;;6153295;23;19967;-79
2022/03/04 12:01:57;;;;;;;;;;;13.00;49.30;;;;;;6153529;23;20326;-75
2022/03/04 12:04:24;;;;;;;;;;;13.10;49.30;;;;;;6152518;23;19917;-79
2022/03/04 12:07:11;;;;;;;;;;;13.20;49.30;;;;;;6152396;23;20268;-76
2022/03/04 12:09:46;;;;;;;;;;;13.20;48.20;;;;;;6153996;23;20374;-77
2022/03/04 12:12:18;;;;;;;;;;;13.20;48.50;;;;;;6153853;23;19975;-75
2022/03/04 12:14:46;;;;;;;;;;;13.20;48.80;;;;;;6152940;23;20257;-75
2022/03/04 12:17:13;;;;;;;;;;;13.50;49.00;;;;;;6152856;23;19987;-75
2022/03/04 12:19:40;;;;;;;;;;;13.60;48.20;;;;;;6152978;23;20297;-79
2022/03/04 12:22:07;;;;;;;;;;;13.40;47.70;;;;;;6152490;23;20396;-79
2022/03/04 12:24:35;;;;;;;;;;;13.40;47.90;;;;;;6154151;23;19916;-77
2022/03/04 12:27:03;;;;;;;;;;;13.30;48.20;;;;;;6151512;23;19916;-76
2022/03/04 12:29:46;;;;;;;;;;;13.40;48.50;;;;;;6152632;23;19923;-79
2022/03/04 12:32:13;;;;;;;;;;;13.60;48.70;;;;;;6150398;23;19927;-78
2022/03/04 12:34:47;;;;;;;;;;;13.80;47.90;;;;;;6151925;23;19920;-75
2022/03/04 12:37:14;;;;;;;;;;;13.90;46.80;;;;;;6152508;23;19920;-76
2022/03/04 12:39:46;;;;;;;;;;;13.70;46.80;;;;;;6151583;23;19975;-78
2022/03/04 12:42:13;;;;;;;;;;;13.60;48.30;;;;;;6175206;23;19924;-76
2022/03/04 12:44:41;;;;;;;;;;;13.50;47.00;;;;;;6152633;23;19979;-76
2022/03/04 12:47:08;;;;;;;;;;;13.60;47.00;;;;;;6152563;23;19921;-77
2022/03/04 12:49:39;;;;;;;;;;;13.70;46.20;;;;;;6152652;23;19923;-76
2022/03/04 12:52:06;;;;;;;;;;;13.90;46.10;;;;;;6152607;23;19963;-79
2022/03/04 12:54:32;;;;;;;;;;;14.00;45.60;;;;;;6153209;23;20337;-79
2022/03/04 12:57:06;;;;;;;;;;;13.90;45.40;;;;;;6153005;23;20355;-79
2022/03/04 12:59:47;;;;;;;;;;;13.90;45.80;;;;;;6154433;23;19920;-77
2022/03/04 13:02:14;;;;;;;;;;;14.20;46.40;;;;;;6154162;23;20296;-75
2022/03/04 13:04:54;;;;;;;;;;;14.00;45.20;;;;;;6154917;23;19944;-80
2022/03/04 13:07:21;;;;;;;;;;;13.60;45.60;;;;;;6156127;23;20538;-79
2022/03/04 13:09:48;;;;;;;;;;;13.70;46.80;;;;;;6156777;23;20398;-78
2022/03/04 13:12:19;;;;;;;;;;;13.80;45.80;;;;;;6154551;23;20227;-80
2022/03/04 13:14:46;;;;;;;;;;;14.10;46.10;;;;;;6154972;23;19917;-80
2022/03/04 13:17:13;;;;;;;;;;;14.30;45.30;;;;;;6155661;23;19923;-80
2022/03/04 13:19:40;;;;;;;;;;;14.30;45.20;;;;;;6156055;23;20249;-80
2022/03/04 13:22:09;;;;;;;;;;;14.00;44.80;;;;;;6155132;23;20234;-77
2022/03/04 13:24:39;;;;;;;;;;;14.10;45.80;;;;;;6154588;23;19923;-76
2022/03/04 13:27:08;;;;;;;;;;;14.30;45.70;;;;;;6153681;23;19920;-75
2022/03/04 13:29:38;;;;;;;;;;;14.50;44.80;;;;;;6155962;23;19916;-76
2022/03/04 13:32:06;;;;;;;;;;;14.50;44.20;;;;;;6153315;23;19920;-76
2022/03/04 13:34:33;;;;;;;;;;;14.40;44.00;;;;;;6155102;23;20410;-78
2022/03/04 13:37:05;;;;;;;;;;;14.20;44.80;;;;;;6154093;23;19916;-81
2022/03/04 13:39:34;;;;;;;;;;;14.30;44.70;;;;;;6155492;23;19920;-77
2022/03/04 13:42:10;;;;;;;;;;;14.50;44.70;;;;;;6155528;23;19987;-76
2022/03/04 13:44:55;;;;;;;;;;;14.50;44.40;;;;;;6154282;23;19967;-79
2022/03/04 13:47:29;;;;;;;;;;;14.50;44.20;;;;;;6154376;23;19986;-76
2022/03/04 13:49:56;;;;;;;;;;;14.50;43.80;;;;;;6153965;23;19916;-76
2022/03/04 13:52:23;;;;;;;;;;;14.70;43.60;;;;;;6154307;23;19920;-77
2022/03/04 13:54:58;;;;;;;;;;;14.90;43.90;;;;;;6156104;23;19916;-76
2022/03/04 13:57:30;;;;;;;;;;;15.10;43.30;;;;;;6153265;23;20456;-77
2022/03/04 14:00:00;;;;;;;;;;;15.10;42.70;;;;;;6154893;23;19983;-76
2022/03/04 14:02:27;;;;;;;;;;;14.90;42.90;;;;;;6155114;23;19963;-76
2022/03/04 14:04:54;;;;;;;;;;;14.90;42.80;;;;;;6153986;23;20253;-78
2022/03/04 14:07:21;;;;;;;;;;;14.80;43.20;;;;;;6177302;23;19967;-78
2022/03/04 14:09:54;;;;;;;;;;;14.70;42.90;;;;;;6155601;23;20013;-78
2022/03/04 14:12:22;;;;;;;;;;;14.30;43.60;;;;;;6152815;23;19916;-76
2022/03/04 14:14:49;;;;;;;;;;;14.20;44.60;;;;;;6154892;23;20304;-76
2022/03/04 14:17:16;;;;;;;;;;;14.00;44.50;;;;;;6154884;23;19916;-76
2022/03/04 14:19:43;;;;;;;;;;;13.80;45.10;;;;;;6153563;23;19966;-76
2022/03/04 14:22:10;;;;;;;;;;;13.60;45.60;;;;;;6155825;23;20329;-76
2022/03/04 14:24:37;;;;;;;;;;;13.40;45.60;;;;;;6155661;23;19920;-76
2022/03/04 14:27:03;;;;;;;;;;;13.30;46.40;;;;;;6152051;23;19920;-77
2022/03/04 14:29:30;;;;;;;;;;;13.40;46.40;;;;;;6151165;23;19920;-78